createdAt,value
2022-09-06T00:01:24.790Z,100431.94
2022-09-06T00:03:53.901Z,100433.25
2022-09-06T00:06:22.581Z,100436.91
2022-09-06T00:08:51.243Z,100438.88
2022-09-06T00:11:20.373Z,100447.69
2022-09-06T00:13:50.547Z,100446.84
2022-09-06T00:16:21.307Z,100441.41
2022-09-06T00:18:49.961Z,100447.56
2022-09-06T00:21:21.281Z,100446.25
2022-09-06T00:23:49.974Z,100442.75
2022-09-06T00:26:19.518Z,100444.09
2022-09-06T00:28:50.309Z,100442.94
2022-09-06T00:31:20.845Z,100441.94
2022-09-06T00:33:50.149Z,100436.50
2022-09-06T00:36:19.256Z,100437.31
2022-09-06T00:38:48.176Z,100439.81
2022-09-06T00:41:18.000Z,100437.81
2022-09-06T00:43:46.535Z,100431.66
2022-09-06T00:46:20.985Z,100426.84
2022-09-06T00:48:54.992Z,100429.75
2022-09-06T00:51:26.127Z,100433.19
2022-09-06T00:53:55.159Z,100439.34
2022-09-06T00:56:25.146Z,100437.34
2022-09-06T00:58:54.088Z,100431.34
2022-09-06T01:01:24.331Z,100436.16
2022-09-06T01:03:53.475Z,100439.16
2022-09-06T01:06:28.257Z,100437.63
2022-09-06T01:09:11.008Z,100454.75
2022-09-06T01:12:06.213Z,100466.56
2022-09-06T01:14:48.702Z,100462.59
2022-09-06T01:17:31.128Z,100460.41
2022-09-06T01:20:34.603Z,100465.19
2022-09-06T01:23:33.640Z,100456.69
2022-09-06T01:26:16.918Z,100461.00
2022-09-06T01:28:48.139Z,100469.00
2022-09-06T01:31:31.199Z,100460.88
2022-09-06T01:34:18.502Z,100466.41
2022-09-06T01:37:09.396Z,100464.91
2022-09-06T01:39:41.110Z,100464.06
2022-09-06T01:42:14.202Z,100466.41
2022-09-06T01:44:51.742Z,100455.59
2022-09-06T01:47:29.870Z,100467.91
2022-09-06T01:50:42.116Z,100453.59
2022-09-06T01:53:23.851Z,100444.94
2022-09-06T01:56:00.027Z,100444.94
2022-09-06T01:58:53.240Z,100457.75
2022-09-06T02:01:31.719Z,100453.25
2022-09-06T02:04:09.241Z,100441.44
2022-09-06T02:06:44.295Z,100442.13
2022-09-06T02:09:18.884Z,100443.25
2022-09-06T02:11:50.008Z,100439.09
2022-09-06T02:14:27.038Z,100436.75
2022-09-06T02:16:59.871Z,100438.25
2022-09-06T02:19:35.311Z,100433.78
2022-09-06T02:22:07.043Z,100440.75
2022-09-06T02:24:40.998Z,100432.78
2022-09-06T02:27:10.236Z,100434.44
2022-09-06T02:29:39.419Z,100445.31
2022-09-06T02:32:15.662Z,100439.94
2022-09-06T02:34:46.521Z,100438.09
2022-09-06T02:37:16.987Z,100427.44
2022-09-06T02:39:45.690Z,100425.63
2022-09-06T02:42:17.855Z,100425.91
2022-09-06T02:44:46.547Z,100429.75
2022-09-06T02:47:16.961Z,100423.06
2022-09-06T02:49:45.746Z,100424.44
2022-09-06T02:52:15.732Z,100422.91
2022-09-06T02:54:44.377Z,100414.50
2022-09-06T02:57:14.417Z,100410.03
2022-09-06T02:59:42.921Z,100399.00
2022-09-06T03:02:11.390Z,100404.88
2022-09-06T03:04:41.635Z,100406.69
2022-09-06T03:07:10.235Z,100408.84
2022-09-06T03:09:38.899Z,100405.34
2022-09-06T03:12:07.750Z,100416.81
2022-09-06T03:14:38.195Z,100408.16
2022-09-06T03:17:06.717Z,100408.16
2022-09-06T03:19:35.403Z,100407.78
2022-09-06T03:22:05.522Z,100410.44
2022-09-06T03:24:34.221Z,100404.13
2022-09-06T03:27:02.692Z,100402.38
2022-09-06T03:29:31.427Z,100402.69
2022-09-06T03:32:00.082Z,100396.53
2022-09-06T03:34:29.183Z,100400.00
2022-09-06T03:36:57.821Z,100395.53
2022-09-06T03:39:29.054Z,100390.19
2022-09-06T03:41:57.925Z,100394.81
2022-09-06T03:44:26.728Z,100387.06
2022-09-06T03:46:55.353Z,100384.69
2022-09-06T03:49:23.946Z,100386.69
2022-09-06T03:51:52.884Z,100378.53
2022-09-06T03:54:21.678Z,100378.72
2022-09-06T03:56:51.829Z,100375.56
2022-09-06T03:59:22.907Z,100381.28
2022-09-06T04:01:51.688Z,100379.72
2022-09-06T04:04:20.443Z,100382.88
2022-09-06T04:06:48.954Z,100372.22
2022-09-06T04:09:17.454Z,100390.19
2022-09-06T04:11:46.089Z,100384.22
2022-09-06T04:14:16.389Z,100378.34
2022-09-06T04:16:44.964Z,100368.84
2022-09-06T04:19:13.970Z,100374.53
2022-09-06T04:21:42.676Z,100378.34
2022-09-06T04:24:12.415Z,100374.53
2022-09-06T04:26:40.989Z,100365.03
2022-09-06T04:29:09.517Z,100370.66
2022-09-06T04:31:40.989Z,100370.38
2022-09-06T04:34:09.804Z,100373.97
2022-09-06T04:36:38.349Z,100363.00
2022-09-06T04:39:07.026Z,100367.91
2022-09-06T04:41:35.593Z,100357.75
2022-09-06T04:44:04.682Z,100347.09
2022-09-06T04:46:33.283Z,100351.56
2022-09-06T04:49:03.668Z,100348.69
2022-09-06T04:51:32.433Z,100341.72
2022-09-06T04:54:01.107Z,100345.41
2022-09-06T04:56:30.706Z,100349.69
2022-09-06T04:58:59.276Z,100350.53
2022-09-06T05:01:28.025Z,100350.69
2022-09-06T05:03:57.289Z,100342.38
2022-09-06T05:06:27.793Z,100333.41
2022-09-06T05:08:56.453Z,100329.78
2022-09-06T05:11:25.111Z,100340.09
2022-09-06T05:13:53.673Z,100337.13
2022-09-06T05:16:22.451Z,100349.44
2022-09-06T05:18:53.377Z,100350.97
2022-09-06T05:21:21.924Z,100345.47
2022-09-06T05:23:55.410Z,100353.28
2022-09-06T05:26:26.564Z,100348.66
2022-09-06T05:28:55.069Z,100351.97
2022-09-06T05:31:32.364Z,100357.00
2022-09-06T05:34:01.553Z,100356.16
2022-09-06T05:36:32.248Z,100361.66
2022-09-06T05:39:02.538Z,100354.50
2022-09-06T05:41:30.956Z,100356.84
2022-09-06T05:44:00.572Z,100367.47
2022-09-06T05:46:29.473Z,100361.50
2022-09-06T05:49:01.401Z,100365.16
2022-09-06T05:51:30.037Z,100362.31
2022-09-06T05:54:01.769Z,100359.66
2022-09-06T05:56:30.608Z,100363.38
2022-09-06T05:58:59.570Z,100358.56
2022-09-06T06:01:30.078Z,100355.00
2022-09-06T06:04:02.602Z,100360.19
2022-09-06T06:06:33.256Z,100369.84
2022-09-06T06:09:03.449Z,100358.06
2022-09-06T06:11:33.165Z,100357.88
2022-09-06T06:14:01.656Z,100360.91
2022-09-06T06:16:31.354Z,100348.44
2022-09-06T06:19:01.694Z,100361.25
2022-09-06T06:21:32.117Z,100359.78
2022-09-06T06:24:03.993Z,100359.31
2022-09-06T06:26:35.503Z,100364.50
2022-09-06T06:29:05.928Z,100350.03
2022-09-06T06:31:35.676Z,100352.22
2022-09-06T06:34:04.780Z,100351.41
2022-09-06T06:36:35.997Z,100334.72
2022-09-06T06:39:08.743Z,100336.72
2022-09-06T06:41:38.222Z,100330.09
2022-09-06T06:44:13.005Z,100328.28
2022-09-06T06:46:48.490Z,100329.09
2022-09-06T06:49:17.437Z,100322.44
2022-09-06T06:51:46.155Z,100323.13
2022-09-06T06:54:24.268Z,100320.97
2022-09-06T06:57:00.974Z,100315.31
2022-09-06T06:59:44.635Z,100305.50
2022-09-06T07:02:20.928Z,100304.34
2022-09-06T07:04:59.480Z,100303.06
2022-09-06T07:12:53.891Z,100293.75
2022-09-06T07:15:23.585Z,100285.22
2022-09-06T07:18:49.789Z,100293.03
2022-09-06T07:27:54.401Z,100283.38
2022-09-06T07:30:46.194Z,100291.00
2022-09-06T07:33:17.621Z,100287.38
2022-09-06T07:35:57.119Z,100286.22
2022-09-06T07:38:27.677Z,100280.91
2022-09-06T07:40:59.214Z,100282.41
2022-09-06T07:43:31.284Z,100280.91
2022-09-06T07:46:01.875Z,100283.56
2022-09-06T07:48:32.845Z,100274.94
2022-09-06T07:51:10.165Z,100282.09
2022-09-06T07:53:40.837Z,100286.78
2022-09-06T07:56:11.829Z,100285.09
2022-09-06T07:58:42.566Z,100280.63
2022-09-06T08:01:28.430Z,100273.59
2022-09-06T08:03:57.566Z,100281.78
2022-09-06T08:06:27.489Z,100277.63
2022-09-06T08:08:57.693Z,100277.81
2022-09-06T08:11:29.314Z,100278.13
2022-09-06T08:14:02.098Z,100279.13
2022-09-06T08:16:32.076Z,100270.28
2022-09-06T08:19:02.625Z,100279.13
2022-09-06T08:21:34.226Z,100275.97
2022-09-06T08:24:04.671Z,100271.66
2022-09-06T08:26:35.378Z,100275.00
2022-09-06T08:29:08.946Z,100261.31
2022-09-06T08:31:41.684Z,100259.78
2022-09-06T08:34:12.906Z,100258.63
2022-09-06T08:36:43.558Z,100250.84
2022-09-06T08:39:12.634Z,100251.66
2022-09-06T08:41:50.083Z,100247.00
2022-09-06T08:47:17.438Z,100245.47
2022-09-06T08:49:48.439Z,100239.00
2022-09-06T08:52:35.847Z,100237.66
2022-09-06T08:55:22.414Z,100235.31
2022-09-06T08:58:14.760Z,100221.44
2022-09-06T09:00:50.993Z,100221.25
2022-09-06T09:03:22.125Z,100221.72
2022-09-06T09:05:55.021Z,100220.75
2022-09-06T09:08:28.295Z,100228.88
2022-09-06T09:11:03.535Z,100234.91
2022-09-06T09:13:36.669Z,100239.72
2022-09-06T09:16:08.145Z,100231.22
2022-09-06T09:18:39.952Z,100255.41
2022-09-06T09:21:09.035Z,100240.22
2022-09-06T09:23:39.143Z,100229.16
2022-09-06T09:26:14.530Z,100230.69
2022-09-06T09:29:04.124Z,100231.19
2022-09-06T09:31:39.934Z,100229.22
2022-09-06T09:34:14.047Z,100224.22
2022-09-06T09:39:36.287Z,100226.88
2022-09-06T09:42:05.284Z,100227.91
2022-09-06T09:44:34.764Z,100235.59
2022-09-06T09:47:24.728Z,100227.75
2022-09-06T09:49:53.437Z,100211.22
2022-09-06T09:52:28.019Z,100200.81
2022-09-06T09:54:59.612Z,100201.78
2022-09-06T09:57:31.884Z,100204.63
2022-09-06T10:00:02.729Z,100209.66
2022-09-06T10:02:35.946Z,100206.28
2022-09-06T10:05:08.690Z,100218.97
2022-09-06T10:07:45.406Z,100239.31
2022-09-06T10:10:17.986Z,100232.31
2022-09-06T10:12:46.831Z,100232.25
2022-09-06T10:15:34.427Z,100235.91
2022-09-06T10:18:05.682Z,100233.69
2022-09-06T10:20:40.460Z,100233.13
2022-09-06T10:26:13.958Z,100223.47
2022-09-06T10:28:44.833Z,100224.59
2022-09-06T10:31:56.929Z,100236.97
2022-09-06T10:34:58.972Z,100235.34
2022-09-06T10:37:43.511Z,100236.50
2022-09-06T10:40:17.844Z,100236.63
2022-09-06T10:42:50.524Z,100245.72
2022-09-06T10:45:47.479Z,100245.38
2022-09-06T10:48:23.314Z,100256.09
2022-09-06T10:50:59.064Z,100256.44
2022-09-06T10:53:44.783Z,100257.91
2022-09-06T10:56:18.903Z,100249.56
2022-09-06T11:01:58.323Z,100239.44
2022-09-06T11:07:31.553Z,100235.81
2022-09-06T11:10:04.732Z,100231.25
2022-09-06T11:12:43.473Z,100237.56
2022-09-06T11:15:16.140Z,100236.38
2022-09-06T11:17:50.112Z,100230.72
2022-09-06T11:20:31.284Z,100233.91
2022-09-06T11:23:34.754Z,100239.13
2022-09-06T11:26:25.638Z,100229.97
2022-09-06T11:28:56.828Z,100227.13
2022-09-06T11:34:24.125Z,100242.97
2022-09-06T11:36:56.288Z,100234.31
2022-09-06T11:42:43.073Z,100225.81
2022-09-06T11:45:21.904Z,100225.16
2022-09-06T11:47:52.527Z,100216.31
2022-09-06T11:50:54.160Z,100224.13
2022-09-06T11:53:24.904Z,100232.81
2022-09-06T11:56:14.337Z,100222.97
2022-09-06T11:58:54.888Z,100231.66
2022-09-06T12:01:38.867Z,100234.13
2022-09-06T12:04:10.634Z,100240.63
2022-09-06T12:06:49.920Z,100249.44
2022-09-06T12:09:34.886Z,100241.59
2022-09-06T12:12:16.330Z,100249.09
2022-09-06T12:14:47.510Z,100244.56
2022-09-06T12:17:23.076Z,100254.53
2022-09-06T12:19:54.171Z,100258.69
2022-09-06T12:23:05.154Z,100258.34
2022-09-06T12:25:56.569Z,100266.00
2022-09-06T12:28:44.385Z,100259.81
2022-09-06T12:31:39.079Z,100264.41
2022-09-06T12:34:13.202Z,100260.28
2022-09-06T12:36:51.757Z,100262.47
2022-09-06T12:39:21.652Z,100260.09
2022-09-06T12:41:55.177Z,100243.94
2022-09-06T12:44:32.851Z,100250.00
2022-09-06T12:47:16.711Z,100235.53
2022-09-06T12:49:46.388Z,100231.75
2022-09-06T12:52:21.058Z,100220.75
2022-09-06T12:54:52.106Z,100224.13
2022-09-06T12:57:24.564Z,100212.81
2022-09-06T12:59:57.079Z,100205.66
2022-09-06T13:02:43.889Z,100188.81
2022-09-06T13:05:14.750Z,100187.34
2022-09-06T13:07:48.203Z,100181.16
2022-09-06T13:10:27.470Z,100181.34
2022-09-06T13:12:59.067Z,100179.81
2022-09-06T13:15:32.267Z,100164.63
2022-09-06T13:18:23.146Z,100167.41
2022-09-06T13:21:03.523Z,100162.13
2022-09-06T13:23:41.340Z,100155.59
2022-09-06T13:26:12.470Z,100160.00
2022-09-06T13:28:42.111Z,100146.78
2022-09-06T13:31:21.858Z,100144.13
2022-09-06T13:33:58.671Z,100148.66
2022-09-06T13:36:31.227Z,100154.31
2022-09-06T13:39:03.810Z,100159.63
2022-09-06T13:41:43.326Z,100155.88
2022-09-06T13:44:28.819Z,100143.13
2022-09-06T13:47:00.231Z,100134.38
2022-09-06T13:49:29.659Z,100131.75
2022-09-06T13:52:02.179Z,100132.63
2022-09-06T13:54:31.391Z,100127.34
2022-09-06T13:57:02.165Z,100122.56
2022-09-06T13:59:32.704Z,100124.63
2022-09-06T14:02:07.847Z,100119.03
2022-09-06T14:04:37.759Z,100128.84
2022-09-06T14:07:08.311Z,100112.84
2022-09-06T14:09:39.363Z,100097.81
2022-09-06T14:12:08.467Z,100111.00
2022-09-06T14:14:37.406Z,100099.94
2022-09-06T14:17:07.836Z,100093.09
2022-09-06T14:19:38.058Z,100091.38
2022-09-06T14:22:08.528Z,100085.16
2022-09-06T14:24:37.138Z,100078.56
2022-09-06T14:27:07.673Z,100076.38
2022-09-06T14:29:38.476Z,100071.53
2022-09-06T14:32:13.142Z,100075.75
2022-09-06T14:34:43.092Z,100077.38
2022-09-06T14:37:13.618Z,100077.19
2022-09-06T14:39:42.670Z,100076.28
2022-09-06T14:42:11.218Z,100081.44
2022-09-06T14:44:40.079Z,100079.56
2022-09-06T14:47:12.509Z,100071.22
2022-09-06T14:49:40.860Z,100062.97
2022-09-06T14:52:09.466Z,100040.97
2022-09-06T14:54:45.255Z,100046.53
2022-09-06T14:57:14.682Z,100029.06
2022-09-06T14:59:43.452Z,100029.16
2022-09-06T15:02:14.486Z,100023.50
2022-09-06T15:04:46.366Z,100015.56
2022-09-06T15:07:16.324Z,100012.19
2022-09-06T15:09:45.251Z,100010.63
2022-09-06T15:12:14.061Z,100008.22
2022-09-06T15:14:43.279Z,99993.44
2022-09-06T15:17:15.580Z,99985.78
2022-09-06T15:19:44.724Z,99981.94
2022-09-06T15:22:14.962Z,99996.22
2022-09-06T15:24:43.997Z,99995.31
2022-09-06T15:27:13.670Z,100004.25
2022-09-06T15:29:45.361Z,99994.94
2022-09-06T15:32:15.717Z,99993.28
2022-09-06T15:34:44.122Z,99988.94
2022-09-06T15:37:14.381Z,99989.78
2022-09-06T15:39:45.798Z,99971.97
2022-09-06T15:42:17.839Z,99970.03
2022-09-06T15:44:46.363Z,99967.56
2022-09-06T15:47:17.014Z,99964.50
2022-09-06T15:49:45.543Z,99968.41
2022-09-06T15:52:14.488Z,99970.03
2022-09-06T15:55:00.974Z,99960.97
2022-09-06T15:57:31.474Z,99962.47
2022-09-06T16:00:02.492Z,99968.47
2022-09-06T16:02:35.436Z,99957.63
2022-09-06T16:05:04.040Z,99960.53
2022-09-06T16:07:32.975Z,99975.00
2022-09-06T16:10:03.649Z,99964.84
2022-09-06T16:12:34.836Z,99963.78
2022-09-06T16:15:04.404Z,99960.78
2022-09-06T16:17:37.211Z,99965.81
2022-09-06T16:20:07.728Z,99960.97
2022-09-06T16:22:37.928Z,99946.09
2022-09-06T16:25:08.308Z,99949.31
2022-09-06T16:27:37.097Z,99929.97
2022-09-06T16:30:08.864Z,99925.78
2022-09-06T16:32:47.070Z,99936.97
2022-09-06T16:35:28.363Z,99932.91
2022-09-06T16:38:01.338Z,99938.53
2022-09-06T16:40:30.412Z,99937.53
2022-09-06T16:42:59.102Z,99930.97
2022-09-06T16:45:27.755Z,99935.13
2022-09-06T16:47:58.401Z,99924.50
2022-09-06T16:50:27.541Z,99914.25
2022-09-06T16:52:56.277Z,99910.59
2022-09-06T16:55:25.870Z,99921.56
2022-09-06T16:57:55.572Z,99928.81
2022-09-06T17:00:24.331Z,99931.00
2022-09-06T17:02:55.031Z,99930.34
2022-09-06T17:05:26.359Z,99939.19
2022-09-06T17:07:56.833Z,99941.31
2022-09-06T17:10:31.509Z,99937.53
2022-09-06T17:13:00.663Z,99931.56
2022-09-06T17:15:50.905Z,99934.06
2022-09-06T17:18:18.883Z,99931.22
2022-09-06T17:21:01.133Z,99937.34
2022-09-06T17:23:32.747Z,99926.31
2022-09-06T17:26:02.799Z,99929.56
2022-09-06T17:28:35.551Z,99923.34
2022-09-06T17:31:07.446Z,99924.19
2022-09-06T17:33:37.085Z,99918.13
2022-09-06T17:36:11.987Z,99933.50
2022-09-06T17:38:41.207Z,99938.22
2022-09-06T17:41:20.215Z,99938.41
2022-09-06T17:43:49.381Z,99943.78
2022-09-06T17:46:18.349Z,99950.97
2022-09-06T17:48:47.301Z,99948.81
2022-09-06T17:51:17.939Z,99957.78
2022-09-06T17:53:49.116Z,99958.69
2022-09-06T17:56:19.506Z,99970.81
2022-09-06T17:58:54.957Z,99971.00
2022-09-06T18:01:24.877Z,99975.72
2022-09-06T18:03:53.954Z,99974.72
2022-09-06T18:06:25.653Z,99974.38
2022-09-06T18:08:56.623Z,99980.53
2022-09-06T18:11:27.382Z,99961.25
2022-09-06T18:14:00.289Z,99970.38
2022-09-06T18:16:32.483Z,99968.06
2022-09-06T18:19:03.248Z,99970.06
2022-09-06T18:21:35.357Z,99973.44
2022-09-06T18:24:04.809Z,99970.91
2022-09-06T18:26:33.437Z,99965.94
2022-09-06T18:29:03.094Z,99970.09
2022-09-06T18:31:31.911Z,99979.09
2022-09-06T18:34:00.653Z,99980.28
2022-09-06T18:36:32.426Z,99987.56
2022-09-06T18:39:05.656Z,99985.06
2022-09-06T18:41:52.288Z,99984.72
2022-09-06T18:44:21.827Z,99994.19
2022-09-06T18:46:51.203Z,99993.72
2022-09-06T18:49:19.887Z,100000.88
2022-09-06T18:51:49.793Z,99998.88
2022-09-06T18:54:19.907Z,100006.84
2022-09-06T18:56:50.169Z,100010.50
2022-09-06T18:59:20.375Z,100015.50
2022-09-06T19:01:50.204Z,100018.97
2022-09-06T19:04:23.493Z,100017.81
2022-09-06T19:06:52.963Z,100023.13
2022-09-06T19:09:23.623Z,100038.09
2022-09-06T19:11:59.638Z,100035.91
2022-09-06T19:14:30.290Z,100052.25
2022-09-06T19:17:02.262Z,100049.91
2022-09-06T19:19:32.561Z,100051.72
2022-09-06T19:22:02.703Z,100048.91
2022-09-06T19:24:34.091Z,100056.06
2022-09-06T19:27:02.772Z,100061.19
2022-09-06T19:29:39.145Z,100054.41
2022-09-06T19:32:08.442Z,100061.69
2022-09-06T19:34:36.938Z,100057.38
2022-09-06T19:37:05.454Z,100049.69
2022-09-06T19:39:37.333Z,100046.03
2022-09-06T19:42:07.301Z,100040.03
2022-09-06T19:44:36.169Z,100039.22
2022-09-06T19:47:05.206Z,100049.22
2022-09-06T19:49:34.216Z,100053.03
2022-09-06T19:52:09.697Z,100048.53
2022-09-06T19:54:41.227Z,100053.84
2022-09-06T19:57:09.777Z,100055.69
2022-09-06T19:59:39.559Z,100048.69
2022-09-06T20:02:08.900Z,100054.03
2022-09-06T20:04:37.688Z,100052.69
2022-09-06T20:07:06.785Z,100054.16
2022-09-06T20:09:36.594Z,100049.31
2022-09-06T20:12:08.040Z,100041.66
2022-09-06T20:14:36.689Z,100046.47
2022-09-06T20:17:29.647Z,100043.97
2022-09-06T20:19:54.443Z,100035.34
2022-09-06T20:22:23.248Z,100041.97
2022-09-06T20:24:52.318Z,100045.31
2022-09-06T20:27:23.567Z,100044.66
2022-09-06T20:29:52.416Z,100042.34
2022-09-06T20:32:21.528Z,100049.47
2022-09-06T20:34:51.979Z,100035.34
2022-09-06T20:37:33.223Z,100045.31
2022-09-06T20:40:08.688Z,100037.50
2022-09-06T20:42:43.007Z,100044.31
2022-09-06T20:45:12.224Z,100038.19
2022-09-06T20:47:41.687Z,100030.50
2022-09-06T20:50:11.305Z,100029.34
2022-09-06T20:52:45.585Z,100026.31
2022-09-06T20:55:18.311Z,100025.81
2022-09-06T20:57:49.886Z,100031.47
2022-09-06T21:00:19.128Z,100023.81
2022-09-06T21:02:55.686Z,100032.44
2022-09-06T21:05:25.816Z,100038.22
2022-09-06T21:07:57.830Z,100037.34
2022-09-06T21:10:29.224Z,100043.47
2022-09-06T21:13:01.270Z,100034.66
2022-09-06T21:15:41.120Z,100032.81
2022-09-06T21:18:14.573Z,100039.28
2022-09-06T21:20:57.582Z,100035.13
2022-09-06T21:23:35.562Z,100030.13
2022-09-06T21:26:08.937Z,100037.56
2022-09-06T21:28:40.953Z,100027.28
2022-09-06T21:31:12.316Z,100021.44
2022-09-06T21:33:42.979Z,100022.56
2022-09-06T21:36:13.921Z,100031.84
2022-09-06T21:38:45.524Z,100022.22
2022-09-06T21:41:15.758Z,100027.38
2022-09-06T21:43:47.628Z,100027.00
2022-09-06T21:46:18.984Z,100020.03
2022-09-06T21:48:56.718Z,100024.00
2022-09-06T21:51:28.113Z,100021.81
2022-09-06T21:53:59.585Z,100017.66
2022-09-06T21:56:28.436Z,100018.63
2022-09-06T21:59:00.549Z,100008.00
2022-09-06T22:01:32.222Z,100006.88
2022-09-06T22:04:03.313Z,100005.88
2022-09-06T22:06:34.120Z,100006.41
2022-09-06T22:09:04.752Z,99996.59
2022-09-06T22:11:35.685Z,100009.06
2022-09-06T22:14:08.260Z,100001.91
2022-09-06T22:16:38.998Z,99995.13
2022-09-06T22:19:08.993Z,99988.16
2022-09-06T22:21:38.849Z,99992.47
2022-09-06T22:24:11.610Z,99991.19
2022-09-06T22:26:42.073Z,100000.13
2022-09-06T22:29:16.071Z,99995.00
2022-09-06T22:31:44.980Z,100005.97
2022-09-06T22:34:13.986Z,99998.66
2022-09-06T22:36:42.589Z,99993.22
2022-09-06T22:39:11.248Z,99989.75
2022-09-06T22:41:40.260Z,99992.41
2022-09-06T22:44:08.981Z,99982.78
2022-09-06T22:46:39.903Z,99988.41
2022-09-06T22:49:08.583Z,99992.06
2022-09-06T22:51:37.058Z,99987.25
2022-09-06T22:54:06.128Z,99990.56
2022-09-06T22:56:35.886Z,99993.56
2022-09-06T22:59:04.849Z,99984.09
2022-09-06T23:01:38.855Z,99983.56
2022-09-06T23:04:10.123Z,99975.75
2022-09-06T23:06:39.154Z,99989.03
2022-09-06T23:09:08.311Z,99985.56
2022-09-06T23:11:37.573Z,99982.06
2022-09-06T23:14:06.562Z,99980.56
2022-09-06T23:16:35.181Z,99981.72
2022-09-06T23:19:04.810Z,99968.56
2022-09-06T23:21:35.118Z,99975.56
2022-09-06T23:24:04.448Z,99971.91
2022-09-06T23:26:34.062Z,99960.97
2022-09-06T23:29:06.203Z,99964.31
2022-09-06T23:31:34.938Z,99958.00
2022-09-06T23:34:05.171Z,99961.34
2022-09-06T23:36:35.569Z,99958.50
2022-09-06T23:39:04.279Z,99947.59
2022-09-06T23:41:32.896Z,99952.91
2022-09-06T23:44:02.370Z,99949.91
2022-09-06T23:46:31.572Z,99951.41
2022-09-06T23:49:00.424Z,99945.75
2022-09-06T23:51:29.171Z,99941.78
2022-09-06T23:53:59.359Z,99941.69
2022-09-06T23:56:27.888Z,99936.53
2022-09-06T23:58:56.518Z,99936.38
